Time;durP1;ratioP1;P1;durP2;ratioP2;P2;SDS_P1;SDS_P2;PMS_P1;PMS_P2;Temp;Humidity;BMP_temperature;BMP_pressure;BME280_temperature;BME280_humidity;BME280_pressure;Samples;Min_cycle;Max_cycle;Signal;HPM_P1;HPM_P2
2022/03/04 00:00:17;;;;;;;;;;;-0.70;99.90;;;;;;5042689;28;19921;-69
2022/03/04 00:02:43;;;;;;;;;;;-0.80;99.90;;;;;;5042609;28;20224;-68
2022/03/04 00:05:10;;;;;;;;;;;-0.80;99.90;;;;;;5034780;28;19922;-69
2022/03/04 00:07:37;;;;;;;;;;;-0.80;99.90;;;;;;5035713;28;20011;-68
2022/03/04 00:10:04;;;;;;;;;;;-0.80;99.90;;;;;;5046176;28;19927;-68
2022/03/04 00:12:31;;;;;;;;;;;-0.80;99.90;;;;;;5046108;28;19928;-68
2022/03/04 00:14:59;;;;;;;;;;;-0.80;99.90;;;;;;5088779;22;19995;-91
2022/03/04 00:17:26;;;;;;;;;;;-0.80;99.90;;;;;;5089018;28;19920;-91
2022/03/04 00:19:52;;;;;;;;;;;-0.80;99.90;;;;;;5089293;28;19944;-91
2022/03/04 00:22:19;;;;;;;;;;;-0.90;99.90;;;;;;5088535;28;19947;-91
2022/03/04 00:24:46;;;;;;;;;;;-0.90;99.90;;;;;;5088908;28;19979;-91
2022/03/04 00:27:12;;;;;;;;;;;-0.90;99.90;;;;;;5070177;28;19921;-91
2022/03/04 00:29:39;;;;;;;;;;;-1.00;99.90;;;;;;5060425;28;19993;-91
2022/03/04 00:32:08;;;;;;;;;;;-0.90;99.90;;;;;;5067719;28;19942;-91
2022/03/04 00:34:34;;;;;;;;;;;-1.00;99.90;;;;;;5067581;28;20292;-91
2022/03/04 00:37:03;;;;;;;;;;;-0.90;99.90;;;;;;5066822;28;19927;-91
2022/03/04 00:39:30;;;;;;;;;;;-0.90;99.90;;;;;;5067351;28;19927;-91
2022/03/04 00:41:57;;;;;;;;;;;-1.00;99.90;;;;;;5067278;28;20000;-92
2022/03/04 00:44:23;;;;;;;;;;;-1.00;99.90;;;;;;5066922;28;20212;-92
2022/03/04 00:46:50;;;;;;;;;;;-1.00;99.90;;;;;;5066531;28;19956;-92
2022/03/04 00:49:18;;;;;;;;;;;-1.00;99.90;;;;;;5066828;28;20378;-91
2022/03/04 00:51:45;;;;;;;;;;;-1.10;99.90;;;;;;5067017;28;19921;-91
2022/03/04 00:54:11;;;;;;;;;;;-1.00;99.90;;;;;;5066654;28;20119;-92
2022/03/04 00:56:38;;;;;;;;;;;-1.10;99.90;;;;;;5066616;28;19920;-91
2022/03/04 00:59:05;;;;;;;;;;;-1.10;99.90;;;;;;5066683;28;20154;-91
2022/03/04 01:01:32;;;;;;;;;;;-1.10;99.90;;;;;;5066191;28;19967;-91
2022/03/04 01:03:58;;;;;;;;;;;-1.20;99.90;;;;;;5083834;28;19983;-92
2022/03/04 01:06:27;;;;;;;;;;;-1.20;99.90;;;;;;5070111;28;19920;-91
2022/03/04 01:08:53;;;;;;;;;;;-1.30;99.90;;;;;;5066724;28;19989;-92
2022/03/04 01:11:20;;;;;;;;;;;-1.30;99.90;;;;;;5066341;28;20093;-91
2022/03/04 01:13:47;;;;;;;;;;;-1.30;99.90;;;;;;5066804;28;19976;-91
2022/03/04 01:16:16;;;;;;;;;;;-1.30;99.90;;;;;;5066152;28;19928;-92
2022/03/04 01:18:43;;;;;;;;;;;-1.30;99.90;;;;;;5083432;28;19920;-91
2022/03/04 01:21:10;;;;;;;;;;;-1.30;99.90;;;;;;5086655;28;19928;-92
2022/03/04 01:23:38;;;;;;;;;;;-1.40;99.90;;;;;;5087010;28;19920;-92
2022/03/04 01:26:05;;;;;;;;;;;-1.40;99.90;;;;;;5086596;28;19983;-92
2022/03/04 01:28:31;;;;;;;;;;;-1.40;99.90;;;;;;5088519;28;20012;-92
2022/03/04 01:30:58;;;;;;;;;;;-1.40;99.90;;;;;;5092300;28;20250;-92
2022/03/04 01:33:25;;;;;;;;;;;-1.50;99.90;;;;;;5080538;28;19984;-92
2022/03/04 01:35:52;;;;;;;;;;;-1.50;99.90;;;;;;5072448;28;19984;-92
2022/03/04 01:38:19;;;;;;;;;;;-1.50;99.90;;;;;;5071588;28;19944;-92
2022/03/04 01:40:47;;;;;;;;;;;-1.50;99.90;;;;;;5071081;28;20263;-91
2022/03/04 01:43:14;;;;;;;;;;;-1.50;99.90;;;;;;5068605;28;19996;-92
2022/03/04 01:45:40;;;;;;;;;;;-1.50;99.90;;;;;;5085738;28;19959;-92
2022/03/04 01:48:07;;;;;;;;;;;-1.50;99.90;;;;;;5085919;28;19921;-91
2022/03/04 01:50:35;;;;;;;;;;;-1.50;99.90;;;;;;5086663;28;19959;-92
2022/03/04 01:53:02;;;;;;;;;;;-1.60;99.90;;;;;;5086660;28;19920;-92
2022/03/04 01:55:29;;;;;;;;;;;-1.60;99.90;;;;;;5085821;28;20243;-93
2022/03/04 01:57:57;;;;;;;;;;;-1.60;99.90;;;;;;5085858;28;19984;-92
2022/03/04 02:00:24;;;;;;;;;;;-1.60;99.90;;;;;;5085584;28;19921;-92
2022/03/04 02:02:50;;;;;;;;;;;-1.60;99.90;;;;;;5085756;28;19920;-92
2022/03/04 02:05:30;;;;;;;;;;;-1.60;99.90;;;;;;5051868;28;19941;-92
2022/03/04 02:07:57;;;;;;;;;;;-1.60;99.90;;;;;;5046876;28;19921;-92
2022/03/04 02:10:23;;;;;;;;;;;-1.60;99.90;;;;;;5045346;28;19944;-92
2022/03/04 02:12:50;;;;;;;;;;;-1.70;99.90;;;;;;5048448;28;19915;-92
2022/03/04 02:15:18;;;;;;;;;;;-1.70;99.90;;;;;;5044236;28;19921;-92
2022/03/04 02:17:45;;;;;;;;;;;-1.70;99.90;;;;;;5044994;28;19929;-92
2022/03/04 02:20:12;;;;;;;;;;;-1.70;99.90;;;;;;5045166;28;20208;-92
2022/03/04 02:22:40;;;;;;;;;;;-1.80;99.90;;;;;;5045234;28;19987;-92
2022/03/04 02:25:07;;;;;;;;;;;-1.80;99.90;;;;;;5045075;28;20228;-92
2022/03/04 02:27:34;;;;;;;;;;;-1.90;99.90;;;;;;5053316;28;19979;-92
2022/03/04 02:30:01;;;;;;;;;;;-1.90;99.90;;;;;;5084435;28;19920;-92
2022/03/04 02:32:28;;;;;;;;;;;-1.90;99.90;;;;;;5085119;28;19920;-92
2022/03/04 02:34:55;;;;;;;;;;;-1.90;99.90;;;;;;5084880;28;19927;-92
2022/03/04 02:37:22;;;;;;;;;;;-2.00;99.90;;;;;;5084845;28;19987;-92
2022/03/04 02:39:51;;;;;;;;;;;-1.90;99.90;;;;;;5084801;28;20160;-92
2022/03/04 02:42:17;;;;;;;;;;;-2.00;99.90;;;;;;5085231;28;19943;-92
2022/03/04 02:44:44;;;;;;;;;;;-1.90;99.90;;;;;;5084416;28;20267;-92
2022/03/04 02:47:11;;;;;;;;;;;-1.90;99.90;;;;;;5084546;28;19927;-92
2022/03/04 02:49:37;;;;;;;;;;;-1.90;99.90;;;;;;5084605;28;19987;-92
2022/03/04 02:52:04;;;;;;;;;;;-2.00;99.90;;;;;;5084879;28;19920;-92
2022/03/04 02:54:31;;;;;;;;;;;-2.00;99.90;;;;;;5085228;28;19920;-92
2022/03/04 02:56:59;;;;;;;;;;;-2.00;99.90;;;;;;5084788;28;20231;-92
2022/03/04 02:59:26;;;;;;;;;;;-2.00;99.90;;;;;;5102714;22;19921;-93
2022/03/04 03:01:53;;;;;;;;;;;-2.00;99.90;;;;;;5086294;28;19992;-90
2022/03/04 03:04:19;;;;;;;;;;;-2.00;99.90;;;;;;5080640;28;19921;-89
2022/03/04 03:06:46;;;;;;;;;;;-2.10;99.90;;;;;;5074044;28;19992;-91
2022/03/04 03:09:13;;;;;;;;;;;-2.10;99.90;;;;;;5074384;28;19948;-94
2022/03/04 03:11:40;;;;;;;;;;;-2.10;99.90;;;;;;5077397;28;19940;-90
2022/03/04 03:14:08;;;;;;;;;;;-2.20;99.90;;;;;;5092589;28;19943;-90
2022/03/04 03:16:34;;;;;;;;;;;-2.20;99.90;;;;;;5075151;28;20269;-91
2022/03/04 03:19:01;;;;;;;;;;;-2.20;99.90;;;;;;5094384;28;19926;-90
2022/03/04 03:21:28;;;;;;;;;;;-2.30;99.90;;;;;;5093914;28;19940;-92
2022/03/04 03:23:54;;;;;;;;;;;-2.30;99.90;;;;;;5083685;28;19980;-90
2022/03/04 03:26:21;;;;;;;;;;;-2.30;99.90;;;;;;5073306;28;20107;-91
2022/03/04 03:28:48;;;;;;;;;;;-2.30;99.90;;;;;;5071933;28;19988;-89
2022/03/04 03:31:16;;;;;;;;;;;-2.30;99.90;;;;;;5072157;28;19921;-91
2022/03/04 03:33:44;;;;;;;;;;;-2.40;99.90;;;;;;5078412;28;19920;-92
2022/03/04 03:36:10;;;;;;;;;;;-2.40;99.90;;;;;;5095077;28;19912;-88
2022/03/04 03:38:38;;;;;;;;;;;-2.50;99.90;;;;;;5097337;28;19916;-89
2022/03/04 03:41:04;;;;;;;;;;;-1.00;99.90;;;;;;5100341;28;19936;-89
2022/03/04 03:43:31;;;;;;;;;;;-2.50;99.90;;;;;;5100587;28;19947;-91
2022/03/04 03:45:58;;;;;;;;;;;-2.60;99.90;;;;;;5097308;28;20238;-91
2022/03/04 03:48:26;;;;;;;;;;;-2.60;99.90;;;;;;5098019;28;20305;-92
2022/03/04 03:50:53;;;;;;;;;;;-2.60;99.90;;;;;;5114986;28;19991;-91
2022/03/04 03:53:19;;;;;;;;;;;-2.60;99.90;;;;;;5110946;28;19983;-90
2022/03/04 03:55:46;;;;;;;;;;;-2.60;99.90;;;;;;5088170;28;19921;-92
2022/03/04 03:58:13;;;;;;;;;;;-2.60;99.90;;;;;;5095297;28;19928;-89
2022/03/04 04:00:39;;;;;;;;;;;-2.60;99.90;;;;;;5101256;28;19927;-92
2022/03/04 04:03:08;;;;;;;;;;;-2.60;99.90;;;;;;5093412;28;19928;-91
2022/03/04 04:05:36;;;;;;;;;;;-2.70;99.90;;;;;;5094890;28;19946;-89
2022/03/04 04:08:02;;;;;;;;;;;-2.80;99.90;;;;;;5095482;28;19920;-91
2022/03/04 04:10:29;;;;;;;;;;;-2.80;99.90;;;;;;5092400;28;19952;-91
2022/03/04 04:12:56;;;;;;;;;;;-2.90;99.90;;;;;;5092406;28;19987;-91
2022/03/04 04:15:22;;;;;;;;;;;-2.90;99.90;;;;;;5092211;28;19920;-92
2022/03/04 04:17:49;;;;;;;;;;;-3.00;99.90;;;;;;5094172;28;19921;-92
2022/03/04 04:20:16;;;;;;;;;;;-3.00;99.90;;;;;;5094767;28;19987;-93
2022/03/04 04:22:44;;;;;;;;;;;-3.10;99.90;;;;;;5093415;28;19987;-90
2022/03/04 04:25:10;;;;;;;;;;;-3.20;99.90;;;;;;5092495;28;19924;-91
2022/03/04 04:27:37;;;;;;;;;;;-3.10;99.90;;;;;;5093361;28;19980;-91
2022/03/04 04:30:04;;;;;;;;;;;-3.10;99.90;;;;;;5095548;28;19920;-90
2022/03/04 04:32:31;;;;;;;;;;;-3.20;99.90;;;;;;5093754;28;19920;-90
2022/03/04 04:34:58;;;;;;;;;;;-3.20;99.90;;;;;;5094393;28;19921;-90
2022/03/04 04:37:24;;;;;;;;;;;-3.20;99.90;;;;;;5092129;28;19980;-90
2022/03/04 04:39:53;;;;;;;;;;;-3.20;99.90;;;;;;5092034;28;19921;-90
2022/03/04 04:42:19;;;;;;;;;;;-3.20;99.90;;;;;;5091297;28;19921;-91
2022/03/04 04:44:46;;;;;;;;;;;-3.10;99.90;;;;;;5091333;28;19920;-89
2022/03/04 04:47:13;;;;;;;;;;;-3.10;99.90;;;;;;5090047;28;19989;-90
2022/03/04 04:49:40;;;;;;;;;;;-3.30;99.90;;;;;;5091275;28;19942;-91
2022/03/04 04:52:07;;;;;;;;;;;-3.30;99.90;;;;;;5091074;28;19987;-91
2022/03/04 04:54:34;;;;;;;;;;;-3.30;99.90;;;;;;5096936;28;19971;-88
2022/03/04 04:57:03;;;;;;;;;;;-3.30;99.90;;;;;;5104243;28;19920;-90
2022/03/04 04:59:30;;;;;;;;;;;-3.40;99.90;;;;;;5114234;28;19920;-91
2022/03/04 05:01:57;;;;;;;;;;;-3.40;99.90;;;;;;5091761;28;19991;-92
2022/03/04 05:04:23;;;;;;;;;;;-3.40;99.90;;;;;;5092293;28;19958;-90
2022/03/04 05:06:50;;;;;;;;;;;-3.30;99.90;;;;;;5091944;28;19979;-91
2022/03/04 05:09:17;;;;;;;;;;;-3.30;99.90;;;;;;5091890;28;19984;-90
2022/03/04 05:11:43;;;;;;;;;;;-3.30;99.90;;;;;;5090513;28;19939;-93
2022/03/04 05:14:12;;;;;;;;;;;-3.30;99.90;;;;;;5113189;28;19979;-93
2022/03/04 05:16:38;;;;;;;;;;;-3.30;99.90;;;;;;5110896;28;19995;-92
2022/03/04 05:19:05;;;;;;;;;;;-3.30;99.90;;;;;;5117586;28;19918;-89
2022/03/04 05:21:32;;;;;;;;;;;-3.20;99.90;;;;;;5109012;28;19931;-90
2022/03/04 05:24:02;;;;;;;;;;;-3.20;99.90;;;;;;5088974;28;19927;-90
2022/03/04 05:26:29;;;;;;;;;;;-3.20;99.90;;;;;;5094583;28;19934;-88
2022/03/04 05:28:56;;;;;;;;;;;-3.30;99.90;;;;;;5093205;28;19920;-90
2022/03/04 05:31:24;;;;;;;;;;;-3.20;99.90;;;;;;5090201;28;19987;-91
2022/03/04 05:33:51;;;;;;;;;;;-3.30;99.90;;;;;;5090054;28;19920;-91
2022/03/04 05:36:18;;;;;;;;;;;-3.20;99.90;;;;;;5085301;28;20238;-91
2022/03/04 05:38:44;;;;;;;;;;;-3.20;99.90;;;;;;5108291;28;19926;-91
2022/03/04 05:41:11;;;;;;;;;;;-3.20;99.90;;;;;;5109073;28;19920;-92
2022/03/04 05:43:38;;;;;;;;;;;-3.20;99.90;;;;;;5108994;28;19927;-90
2022/03/04 05:46:05;;;;;;;;;;;-3.20;99.90;;;;;;5105572;28;19959;-91
2022/03/04 05:48:33;;;;;;;;;;;-3.20;99.90;;;;;;5091820;28;19920;-91
2022/03/04 05:51:00;;;;;;;;;;;-3.30;99.90;;;;;;5087128;28;19954;-89
2022/03/04 05:53:27;;;;;;;;;;;-3.20;99.90;;;;;;5106046;28;19979;-90
2022/03/04 05:55:53;;;;;;;;;;;-3.30;99.90;;;;;;5109475;28;19920;-90
2022/03/04 05:58:20;;;;;;;;;;;-3.30;99.90;;;;;;5088814;28;20165;-91
2022/03/04 06:00:47;;;;;;;;;;;-3.30;99.90;;;;;;5088487;28;19920;-91
2022/03/04 06:03:14;;;;;;;;;;;-3.30;99.90;;;;;;5085711;28;20003;-91
2022/03/04 06:05:42;;;;;;;;;;;-3.30;99.90;;;;;;5083999;28;19944;-91
2022/03/04 06:08:09;;;;;;;;;;;-3.30;99.90;;;;;;5106111;28;20241;-91
2022/03/04 06:10:36;;;;;;;;;;;-3.20;99.90;;;;;;5086707;28;19928;-90
2022/03/04 06:13:02;;;;;;;;;;;-2.50;99.90;;;;;;5071702;28;19993;-91
2022/03/04 06:15:29;;;;;;;;;;;-3.30;99.90;;;;;;5068349;28;19980;-89
2022/03/04 06:17:56;;;;;;;;;;;-3.30;99.90;;;;;;5083335;28;19920;-90
2022/03/04 06:20:23;;;;;;;;;;;-3.30;99.90;;;;;;5092369;28;19980;-92
2022/03/04 06:22:52;;;;;;;;;;;-3.30;99.90;;;;;;5092708;28;19920;-90
2022/03/04 06:25:20;;;;;;;;;;;-3.20;99.90;;;;;;5088217;28;19928;-89
2022/03/04 06:30:53;;;;;;;;;;;-3.20;99.90;;;;;;5065961;28;20250;-89
2022/03/04 06:33:33;;;;;;;;;;;-3.20;99.90;;;;;;5069977;28;19944;-87
2022/03/04 06:36:01;;;;;;;;;;;-3.10;99.90;;;;;;5085870;28;19987;-88
2022/03/04 06:38:29;;;;;;;;;;;-3.10;99.90;;;;;;5087692;28;20342;-89
2022/03/04 06:41:04;;;;;;;;;;;-3.00;99.90;;;;;;5085777;28;19921;-90
2022/03/04 06:43:31;;;;;;;;;;;-3.00;99.90;;;;;;5085857;28;19921;-88
2022/03/04 06:45:58;;;;;;;;;;;-3.00;99.90;;;;;;5085067;28;19921;-87
2022/03/04 06:48:26;;;;;;;;;;;-3.00;99.90;;;;;;5090458;28;19996;-91
2022/03/04 06:50:53;;;;;;;;;;;-2.90;99.90;;;;;;5096183;28;19980;-90
2022/03/04 06:53:20;;;;;;;;;;;-2.90;99.90;;;;;;5079488;28;19921;-91
2022/03/04 06:55:49;;;;;;;;;;;-2.10;99.90;;;;;;5088432;28;19944;-90
2022/03/04 06:58:16;;;;;;;;;;;-2.80;99.90;;;;;;5116910;28;19920;-90
2022/03/04 07:00:43;;;;;;;;;;;-2.70;99.90;;;;;;5116935;28;19912;-90
2022/03/04 07:03:10;;;;;;;;;;;-2.70;99.90;;;;;;5117698;28;19999;-90
2022/03/04 07:05:37;;;;;;;;;;;-2.70;99.90;;;;;;5091197;28;20115;-90
2022/03/04 07:08:06;;;;;;;;;;;-2.60;99.90;;;;;;5094507;28;19944;-90
2022/03/04 07:10:33;;;;;;;;;;;-2.50;99.90;;;;;;5094043;28;19951;-90
2022/03/04 07:13:01;;;;;;;;;;;-2.40;99.90;;;;;;5088899;28;19928;-90
2022/03/04 07:15:28;;;;;;;;;;;-2.40;99.90;;;;;;5094963;28;19985;-91
2022/03/04 07:17:55;;;;;;;;;;;-2.30;99.90;;;;;;5097043;28;19980;-91
2022/03/04 07:20:22;;;;;;;;;;;-2.30;99.90;;;;;;5098702;28;19975;-90
2022/03/04 07:22:48;;;;;;;;;;;-2.20;99.90;;;;;;5092795;28;19921;-91
2022/03/04 07:25:16;;;;;;;;;;;-2.20;99.90;;;;;;5089174;28;19980;-91
2022/03/04 07:27:43;;;;;;;;;;;-2.00;99.90;;;;;;5098776;28;19920;-91
2022/03/04 07:30:13;;;;;;;;;;;-2.00;99.90;;;;;;5101439;28;19920;-91
2022/03/04 07:32:40;;;;;;;;;;;-1.90;99.90;;;;;;5100009;28;19920;-89
2022/03/04 07:35:07;;;;;;;;;;;-1.90;99.90;;;;;;5081221;28;19921;-90
2022/03/04 07:37:34;;;;;;;;;;;-1.80;99.90;;;;;;5079962;28;19921;-91
2022/03/04 07:40:01;;;;;;;;;;;-1.70;99.90;;;;;;5099032;28;19980;-91
2022/03/04 07:42:28;;;;;;;;;;;-1.60;99.90;;;;;;5119723;28;19976;-91
2022/03/04 07:44:54;;;;;;;;;;;-1.60;99.90;;;;;;5120504;28;19908;-90
2022/03/04 07:47:23;;;;;;;;;;;-1.40;99.90;;;;;;5120535;28;19936;-90
2022/03/04 07:49:49;;;;;;;;;;;-1.40;99.90;;;;;;5119246;28;19927;-91
2022/03/04 07:52:16;;;;;;;;;;;-1.00;99.90;;;;;;5113891;28;19931;-90
2022/03/04 07:54:43;;;;;;;;;;;-1.20;99.90;;;;;;5090042;28;19964;-93
2022/03/04 07:57:10;;;;;;;;;;;-0.50;99.90;;;;;;5098236;28;19939;-90
2022/03/04 07:59:37;;;;;;;;;;;-0.90;99.90;;;;;;5098614;28;19948;-89
2022/03/04 08:02:04;;;;;;;;;;;-1.10;99.90;;;;;;5098552;28;20298;-91
2022/03/04 08:04:32;;;;;;;;;;;-1.00;99.90;;;;;;5084148;28;19925;-90
2022/03/04 08:06:59;;;;;;;;;;;-0.90;99.90;;;;;;5077302;28;19931;-90
2022/03/04 08:09:25;;;;;;;;;;;-0.90;99.90;;;;;;5092647;28;19956;-90
2022/03/04 08:11:53;;;;;;;;;;;-0.80;99.90;;;;;;5080540;28;19925;-90
2022/03/04 08:14:20;;;;;;;;;;;-0.80;99.90;;;;;;5072208;28;19909;-92
2022/03/04 08:16:46;;;;;;;;;;;-0.70;99.90;;;;;;5073813;28;19909;-91
2022/03/04 08:19:13;;;;;;;;;;;-0.60;99.90;;;;;;5076827;28;19980;-89
2022/03/04 08:21:41;;;;;;;;;;;-0.60;99.90;;;;;;5080342;28;19919;-90
2022/03/04 08:24:08;;;;;;;;;;;-0.50;99.90;;;;;;5101892;28;19912;-89
2022/03/04 08:26:38;;;;;;;;;;;-0.50;99.90;;;;;;5089420;28;19921;-90
2022/03/04 08:29:05;;;;;;;;;;;-0.50;99.90;;;;;;5094488;28;19920;-90
2022/03/04 08:31:32;;;;;;;;;;;-0.40;99.90;;;;;;5093660;28;20029;-89
2022/03/04 08:33:58;;;;;;;;;;;-0.40;99.90;;;;;;5097313;28;19908;-90
2022/03/04 08:36:25;;;;;;;;;;;-0.30;99.90;;;;;;5099289;28;19993;-89
2022/03/04 08:38:53;;;;;;;;;;;-0.20;99.90;;;;;;5097609;28;19913;-89
2022/03/04 08:41:20;;;;;;;;;;;-0.10;99.90;;;;;;5079524;28;19912;-90
2022/03/04 08:43:47;;;;;;;;;;;-0.10;99.90;;;;;;5079592;28;19964;-90
2022/03/04 08:46:14;;;;;;;;;;;0.40;99.90;;;;;;5096015;28;19919;-89
2022/03/04 08:48:40;;;;;;;;;;;0.10;99.90;;;;;;5099107;28;19927;-89
2022/03/04 08:51:07;;;;;;;;;;;0.70;99.90;;;;;;5091052;28;19921;-91
2022/03/04 08:53:34;;;;;;;;;;;0.20;99.90;;;;;;5098846;28;19920;-90
2022/03/04 08:56:03;;;;;;;;;;;0.20;99.90;;;;;;5097646;28;19921;-90
2022/03/04 08:58:30;;;;;;;;;;;0.30;99.90;;;;;;5094854;28;19988;-91
2022/03/04 09:00:57;;;;;;;;;;;0.70;99.90;;;;;;5091637;28;19984;-91
2022/03/04 09:03:24;;;;;;;;;;;0.50;99.90;;;;;;5089126;28;19999;-91
2022/03/04 09:05:51;;;;;;;;;;;0.60;99.90;;;;;;5091286;28;19928;-91
2022/03/04 09:08:17;;;;;;;;;;;0.70;99.90;;;;;;5090253;28;20274;-90
2022/03/04 09:10:44;;;;;;;;;;;0.80;99.90;;;;;;5086683;28;20009;-91
2022/03/04 09:13:12;;;;;;;;;;;0.80;99.90;;;;;;5100381;22;19961;-71
2022/03/04 09:15:38;;;;;;;;;;;1.00;99.90;;;;;;5084827;28;20150;-69
2022/03/04 09:18:05;;;;;;;;;;;1.00;99.90;;;;;;5085411;28;19920;-69
2022/03/04 09:20:32;;;;;;;;;;;1.10;99.90;;;;;;5067516;28;19921;-69
2022/03/04 09:22:59;;;;;;;;;;;1.10;99.90;;;;;;5065244;28;19920;-69
2022/03/04 09:25:26;;;;;;;;;;;1.20;99.90;;;;;;5072483;28;19928;-69
2022/03/04 09:27:53;;;;;;;;;;;1.30;99.90;;;;;;5084461;28;20119;-69
2022/03/04 09:30:21;;;;;;;;;;;1.40;99.90;;;;;;5078398;28;19928;-69
2022/03/04 09:32:48;;;;;;;;;;;1.50;99.90;;;;;;5074369;28;20212;-69
2022/03/04 09:35:15;;;;;;;;;;;1.60;99.90;;;;;;5072241;28;19921;-71
2022/03/04 09:37:41;;;;;;;;;;;1.70;99.90;;;;;;5062907;28;19920;-69
2022/03/04 09:40:09;;;;;;;;;;;1.80;99.90;;;;;;5064428;28;19928;-68
2022/03/04 09:42:36;;;;;;;;;;;1.80;99.90;;;;;;5064482;28;19928;-68
2022/03/04 09:45:03;;;;;;;;;;;2.00;99.90;;;;;;5074112;28;19920;-71
2022/03/04 09:47:31;;;;;;;;;;;2.00;99.90;;;;;;5080272;28;20287;-69
2022/03/04 09:49:58;;;;;;;;;;;2.10;99.90;;;;;;5073742;28;19927;-69
2022/03/04 09:52:25;;;;;;;;;;;2.20;99.90;;;;;;5084350;28;19942;-69
2022/03/04 09:54:53;;;;;;;;;;;2.30;99.90;;;;;;5084085;28;20100;-69
2022/03/04 09:57:20;;;;;;;;;;;2.40;99.90;;;;;;5083515;28;19928;-69
2022/03/04 09:59:46;;;;;;;;;;;2.40;99.90;;;;;;5075584;28;19983;-69
2022/03/04 10:02:13;;;;;;;;;;;2.50;99.90;;;;;;5084648;28;19920;-68
2022/03/04 10:04:42;;;;;;;;;;;2.60;99.90;;;;;;5084387;28;19927;-68
2022/03/04 10:07:09;;;;;;;;;;;2.70;99.90;;;;;;5082106;28;19963;-69
2022/03/04 10:09:36;;;;;;;;;;;2.80;99.90;;;;;;5064252;28;19928;-69
2022/03/04 10:12:03;;;;;;;;;;;2.90;99.90;;;;;;5064517;28;20119;-69
2022/03/04 10:14:30;;;;;;;;;;;2.90;99.90;;;;;;5063978;28;20123;-68
2022/03/04 10:16:57;;;;;;;;;;;3.00;99.90;;;;;;5062926;28;19991;-68
2022/03/04 10:19:24;;;;;;;;;;;3.20;99.90;;;;;;5067503;28;20161;-68
2022/03/04 10:21:53;;;;;;;;;;;3.30;99.90;;;;;;5064850;28;19921;-67
2022/03/04 10:24:20;;;;;;;;;;;3.40;99.90;;;;;;5081444;28;19966;-69
2022/03/04 10:26:47;;;;;;;;;;;3.60;99.90;;;;;;5074095;28;19921;-69
2022/03/04 10:29:17;;;;;;;;;;;3.70;99.90;;;;;;5074304;28;19924;-69
2022/03/04 10:32:07;;;;;;;;;;;3.80;99.90;;;;;;5073267;28;19929;-69
2022/03/04 10:34:43;;;;;;;;;;;3.90;99.90;;;;;;5074958;28;19998;-69
2022/03/04 10:37:10;;;;;;;;;;;4.00;99.90;;;;;;5074523;28;19920;-69
2022/03/04 10:39:37;;;;;;;;;;;4.10;99.90;;;;;;5073768;28;20215;-69
2022/03/04 10:42:04;;;;;;;;;;;4.20;99.90;;;;;;5075485;28;19942;-67
2022/03/04 10:44:31;;;;;;;;;;;4.30;99.90;;;;;;5070893;28;20332;-68
2022/03/04 10:46:58;;;;;;;;;;;4.40;99.90;;;;;;5070672;28;19927;-69
2022/03/04 10:49:25;;;;;;;;;;;4.50;99.90;;;;;;5075727;28;19920;-69
2022/03/04 10:51:53;;;;;;;;;;;4.70;99.90;;;;;;5078946;28;19921;-68
2022/03/04 10:54:21;;;;;;;;;;;4.80;99.90;;;;;;5063498;28;19951;-69
2022/03/04 10:56:47;;;;;;;;;;;4.90;99.90;;;;;;5062844;28;19927;-68
2022/03/04 10:59:16;;;;;;;;;;;5.00;99.90;;;;;;5062643;28;20123;-69
2022/03/04 11:01:46;;;;;;;;;;;5.20;99.90;;;;;;5069761;28;20253;-69
2022/03/04 11:04:13;;;;;;;;;;;5.30;99.90;;;;;;5072118;28;19960;-68
2022/03/04 11:06:41;;;;;;;;;;;5.50;99.90;;;;;;5083024;28;19921;-68
2022/03/04 11:09:08;;;;;;;;;;;5.70;99.90;;;;;;5074450;28;19921;-69
2022/03/04 11:11:37;;;;;;;;;;;5.80;99.90;;;;;;5073742;28;19921;-69
2022/03/04 11:14:07;;;;;;;;;;;5.90;99.90;;;;;;5068071;28;19921;-68
2022/03/04 11:16:33;;;;;;;;;;;5.90;99.90;;;;;;5074773;28;19932;-70
2022/03/04 11:19:01;;;;;;;;;;;6.10;99.90;;;;;;5075524;28;20143;-69
2022/03/04 11:21:28;;;;;;;;;;;6.20;99.90;;;;;;5063445;28;19929;-69
2022/03/04 11:23:55;;;;;;;;;;;6.40;99.90;;;;;;5067140;28;19924;-69
2022/03/04 11:26:22;;;;;;;;;;;6.50;99.90;;;;;;5062792;28;19979;-68
2022/03/04 11:28:51;;;;;;;;;;;6.50;99.90;;;;;;5075428;28;19928;-68
2022/03/04 11:31:20;;;;;;;;;;;6.60;99.90;;;;;;5081719;28;19920;-67
2022/03/04 11:33:51;;;;;;;;;;;6.60;99.90;;;;;;5064884;28;20204;-67
2022/03/04 11:36:18;;;;;;;;;;;6.80;99.90;;;;;;5072464;28;19921;-68
2022/03/04 11:39:07;;;;;;;;;;;6.80;99.90;;;;;;5067385;28;19927;-68
2022/03/04 11:41:40;;;;;;;;;;;6.90;99.90;;;;;;5069152;28;19920;-73
2022/03/04 11:44:13;;;;;;;;;;;7.00;99.90;;;;;;5072994;28;20339;-68
2022/03/04 11:46:44;;;;;;;;;;;7.30;99.90;;;;;;5064032;28;21471;-68
2022/03/04 11:49:28;;;;;;;;;;;7.50;99.90;;;;;;5082676;28;19926;-68
2022/03/04 11:52:11;;;;;;;;;;;7.60;99.90;;;;;;5055708;28;20120;-68
2022/03/04 11:54:38;;;;;;;;;;;7.70;99.90;;;;;;5061943;28;20216;-67
2022/03/04 11:57:15;;;;;;;;;;;7.70;99.90;;;;;;5077869;28;19920;-73
2022/03/04 11:59:48;;;;;;;;;;;7.90;99.90;;;;;;5069340;28;20128;-68
2022/03/04 12:02:18;;;;;;;;;;;7.90;99.90;;;;;;5077677;28;19983;-69
2022/03/04 12:04:45;;;;;;;;;;;8.10;99.90;;;;;;5085734;28;19927;-69
2022/03/04 12:07:11;;;;;;;;;;;8.20;99.90;;;;;;5074789;28;20270;-69
2022/03/04 12:09:39;;;;;;;;;;;8.00;99.90;;;;;;5071209;28;19921;-67
2022/03/04 12:12:12;;;;;;;;;;;7.90;99.90;;;;;;5081152;28;20203;-69
2022/03/04 12:14:41;;;;;;;;;;;8.00;99.90;;;;;;5082709;28;20103;-68
2022/03/04 12:17:10;;;;;;;;;;;8.20;99.90;;;;;;5072035;28;19980;-68
2022/03/04 12:19:37;;;;;;;;;;;8.20;99.90;;;;;;5065958;28;20003;-69
2022/03/04 12:22:05;;;;;;;;;;;8.30;99.90;;;;;;5065957;28;20119;-68
2022/03/04 12:24:33;;;;;;;;;;;8.40;99.90;;;;;;5066018;28;20048;-69
2022/03/04 12:27:00;;;;;;;;;;;8.50;99.90;;;;;;5095165;22;19920;-96
2022/03/04 12:29:42;;;;;;;;;;;8.60;99.90;;;;;;5129969;28;19943;-95
2022/03/04 12:32:13;;;;;;;;;;;8.80;99.90;;;;;;5130056;28;19915;-95
2022/03/04 12:34:49;;;;;;;;;;;9.00;99.90;;;;;;5127608;28;19943;-96
2022/03/04 12:37:15;;;;;;;;;;;9.20;99.00;;;;;;5128969;28;19920;-95
2022/03/04 12:39:46;;;;;;;;;;;9.10;98.40;;;;;;5126967;28;19908;-95
2022/03/04 12:42:13;;;;;;;;;;;9.00;98.00;;;;;;5129860;28;20019;-94
2022/03/04 12:44:41;;;;;;;;;;;9.10;97.80;;;;;;5126017;28;19913;-95
2022/03/04 12:47:09;;;;;;;;;;;9.00;98.40;;;;;;5127195;28;19951;-95
2022/03/04 12:49:41;;;;;;;;;;;9.00;98.20;;;;;;5126413;28;19979;-96
2022/03/04 12:52:07;;;;;;;;;;;9.10;99.30;;;;;;5129755;28;19971;-95
2022/03/04 12:54:34;;;;;;;;;;;8.90;97.00;;;;;;5127780;28;19928;-94
2022/03/04 12:57:06;;;;;;;;;;;9.00;96.80;;;;;;5129083;28;19975;-94
2022/03/04 12:59:43;;;;;;;;;;;9.10;96.90;;;;;;5130584;28;19914;-95
2022/03/04 13:02:18;;;;;;;;;;;9.30;95.70;;;;;;5125783;28;19944;-95
2022/03/04 13:04:56;;;;;;;;;;;9.40;95.80;;;;;;5120312;28;19975;-93
2022/03/04 13:07:23;;;;;;;;;;;9.50;95.10;;;;;;5116548;28;19927;-93
2022/03/04 13:09:50;;;;;;;;;;;9.40;95.10;;;;;;5115406;28;19987;-93
2022/03/04 13:12:21;;;;;;;;;;;9.70;96.00;;;;;;5121556;28;19919;-90
2022/03/04 13:14:47;;;;;;;;;;;9.80;96.20;;;;;;5116223;28;19956;-92
2022/03/04 13:17:16;;;;;;;;;;;9.70;95.60;;;;;;5118834;28;19951;-93
2022/03/04 13:19:43;;;;;;;;;;;9.70;95.50;;;;;;5119369;28;19936;-94
2022/03/04 13:22:11;;;;;;;;;;;9.70;95.20;;;;;;5119530;28;19920;-93
2022/03/04 13:24:39;;;;;;;;;;;10.00;95.40;;;;;;5119319;28;19930;-94
2022/03/04 13:27:06;;;;;;;;;;;10.20;94.70;;;;;;5119324;28;19942;-94
2022/03/04 13:29:34;;;;;;;;;;;10.30;94.50;;;;;;5119234;28;19935;-94
2022/03/04 13:32:05;;;;;;;;;;;9.90;93.90;;;;;;5125766;28;19936;-94
2022/03/04 13:34:34;;;;;;;;;;;9.60;94.10;;;;;;5119409;28;19923;-94
2022/03/04 13:37:02;;;;;;;;;;;9.70;95.60;;;;;;5137818;28;19971;-93
2022/03/04 13:39:30;;;;;;;;;;;9.80;94.60;;;;;;5099021;28;19919;-94
2022/03/04 13:42:14;;;;;;;;;;;9.80;94.80;;;;;;5121132;28;19911;-94
2022/03/04 13:45:00;;;;;;;;;;;10.00;93.80;;;;;;5118742;28;19955;-94
2022/03/04 13:47:28;;;;;;;;;;;9.90;93.60;;;;;;5118321;28;19912;-95
2022/03/04 13:49:57;;;;;;;;;;;10.10;93.80;;;;;;5118958;27;19920;-93
2022/03/04 13:52:23;;;;;;;;;;;10.20;93.50;;;;;;5114835;28;19920;-93
2022/03/04 13:54:51;;;;;;;;;;;10.10;93.80;;;;;;5117569;28;20215;-92
2022/03/04 13:57:39;;;;;;;;;;;10.10;94.50;;;;;;5137697;22;20109;-69
2022/03/04 14:00:09;;;;;;;;;;;10.20;94.50;;;;;;5060662;28;19929;-71
2022/03/04 14:02:39;;;;;;;;;;;10.10;93.80;;;;;;5064410;28;19920;-71
2022/03/04 14:05:09;;;;;;;;;;;10.10;93.50;;;;;;5078207;28;19920;-71
2022/03/04 14:07:42;;;;;;;;;;;9.80;94.30;;;;;;5083802;28;19921;-71
2022/03/04 14:10:13;;;;;;;;;;;9.80;94.40;;;;;;5084225;28;19943;-71
2022/03/04 14:12:40;;;;;;;;;;;9.60;93.70;;;;;;5083839;28;19928;-71
2022/03/04 14:15:07;;;;;;;;;;;9.30;93.90;;;;;;5083909;28;19928;-71
2022/03/04 14:17:44;;;;;;;;;;;9.00;94.10;;;;;;5083299;28;19928;-71
2022/03/04 14:20:12;;;;;;;;;;;8.50;94.70;;;;;;5083079;28;19920;-71
2022/03/04 14:22:39;;;;;;;;;;;8.30;95.60;;;;;;5083812;28;19984;-71
2022/03/04 14:25:06;;;;;;;;;;;8.60;96.20;;;;;;5082657;28;19927;-71
2022/03/04 14:27:33;;;;;;;;;;;8.90;95.90;;;;;;5082805;28;20115;-70